Observations for PESCARA, Italy (LIBP)

LIBP 221250Z VRB02KT 9999 SCT018 BKN030 09/05 Q1002 
LIBP 221150Z VRB02KT 9999 SCT015 BKN030 08/05 Q1003 
LIBP 221050Z 20005KT 9999 BKN025 07/05 Q1005
LIBP 220950Z 22005KT 9999 BKN025 07/05 Q1006
LIBP 220850Z 25004KT 9999 BKN020 06/04 Q1006
LIBP 220750Z 22004KT 9999 BKN020 05/04 Q1007
LIBP 220650Z 21004KT 180V250 9999 -RA BKN018 05/04 Q1007
LIBP 220550Z AUTO 22004KT 200V270 9999 -RA OVC018/// 05/04 Q1008
LIBP 220550Z AUTO 22004KT 200V270 9999 -RA OVC018 05/04 Q1008
LIBP 220450Z AUTO 21004KT 190V270 9999 -RA OVC016/// 05/04 Q1008
LIBP 220450Z AUTO 21004KT 190V270 9999 -RA OVC016 05/04 Q1008
LIBP 220350Z AUTO 23004KT 9999 -RA OVC016/// 06/04 Q1008
LIBP 220350Z AUTO 23004KT 9999 -RA OVC016 06/04 Q1008
LIBP 220250Z AUTO 21004KT 9999 -RA OVC015/// 06/04 Q1009
LIBP 220250Z AUTO 21004KT 9999 -RA OVC015 06/04 Q1009
LIBP 220150Z AUTO 24003KT 220V280 9999 -RA OVC013/// 06/05 Q1010
LIBP 220150Z AUTO 24003KT 220V280 9999 -RA OVC013 06/05 Q1010
LIBP 220115Z AUTO 23004KT 200V270 8000 -RA OVC009/// 06/06 Q1010
LIBP 220050Z AUTO 21002KT 6000 -RA OVC010/// 06/06 Q1011
LIBP 220100Z AUTO 21003KT 4900 -RA BR OVC009/// 06/06 Q1010
LIBP 220051Z AUTO 21002KT 6000 -RA OVC009/// 06/06 Q1011
LIBP 220050Z AUTO 21002KT 6000 -RA OVC010 06/06 Q1011
LIBP 212350Z AUTO 15002KT 9999 -RA OVC011 06/06 Q1011
LIBP 220051Z AUTO 21002KT 6000 -RA OVC009/// 06/06 Q1011
LIBP 212350Z AUTO 15002KT 9999 -RA OVC011/// 06/06 Q1011
LIBP 212306Z AUTO VRB01KT 9999 DZ OVC009/// 06/06 Q1012
LIBP 212316Z AUTO VRB01KT 9999 -RA OVC008/// 06/06 Q1012
LIBP 212250Z AUTO VRB01KT 9999 -RA OVC015/// 06/05 Q1012
LIBP 212302Z AUTO VRB01KT 9999 DZ OVC011/// 06/06 Q1012
LIBP 212251Z AUTO VRB01KT 9999 -RA OVC014/// 06/05 Q1012
LIBP 212250Z AUTO VRB01KT 9999 -RA OVC015 06/05 Q1012
LIBP 212150Z VRB01KT 9999 -RA SCT015 BKN030 06/06 Q1012 
LIBP 212050Z VRB01KT 9999 -RA SCT015 BKN030 07/06 Q1012 
LIBP 211950Z VRB01KT 9999 -RA SCT015 BKN025 07/05 Q1012 
LIBP 211850Z VRB01KT 9999 -RA SCT015 BKN025 07/06 Q1013 RERA
LIBP 211750Z 00000KT 9999 RA SCT015 BKN025 07/06 Q1013  
LIBP 211650Z VRB02KT 9999 -RA SCT015 BKN025 07/06 Q1013 
LIBP 211550Z 04002KT 9999 -RA BKN015 08/06 Q1013
LIBP 211450Z 02003KT 340V050 9999 -RA SCT015 BKN025 08/06 Q1013 
LIBP 211350Z 33004KT 300V030 9999 -DZ SCT015 BKN030 08/05 Q1013 
LIBP 211250Z 34005KT 300V010 9999 SCT020 BKN035 09/06 Q1013